Flag for USA

Past Weather in Olympia, Washington, USA — Yesterday and Last 2 Weeks

Currently: 38 °F. Fog. (Weather station: Olympia Airport, USA). See more current weather

Past Weather in Olympia — Graph

°F

Olympia Temperature Yesterday

Maximum temperature yesterday: 53 °F (at 2:54 pm)
Minimum temperature yesterday: 33 °F (at 8:54 pm)
Average temperature yesterday: 43 °F

High & Low Weather Summary for the Past Weeks

 TemperatureHumidityPressure
High57 °F (Jan 12, 9:30 pm)100% (Jan 3, 6:38 pm)30.52 "Hg (Jan 3, 6:38 pm)
Low31 °F (Jan 9, 1:01 am)56% (Jan 14, 1:54 pm)29.47 "Hg (Jan 4, 8:54 am)
Average44 °F92%30.06 "Hg
* Reported Jan 1 3:04 am — Jan 16 3:54 am, Olympia. Weather by CustomWeather, © 2021

Note: Actual official high and low records may vary slightly from our data, if they occured in-between our weather recording intervals... More about our weather records

Olympia Weather History for the Previous 24 Hours

Scroll right to see more
 ConditionsComfort  
Time TempWeatherWind HumidityBarometerVisibility
3:54 am
Sat, Jan 16
38 °FFog.No wind97%30.43 "Hg0 mi
3:43 am38 °FFog.No wind97%30.44 "Hg0 mi
3:28 am38 °FFog.No wind97%30.45 "Hg0 mi
3:19 am37 °FFog.No wind100%30.45 "Hg1 mi
3:02 am37 °FFog.No wind96%30.45 "Hg1 mi
2:44 am37 °FFog.No wind100%30.45 "Hg0 mi
2:07 am36 °FFog.No wind97%30.45 "Hg0 mi
1:54 am36 °FFog.No wind97%30.45 "Hg0 mi
1:21 am34 °FFog.No wind100%30.45 "Hg0 mi
1:03 am36 °FFog.No wind92%30.45 "Hg0 mi
12:54 am36 °FFog.No wind92%30.45 "Hg0 mi
12:37 am37 °FFog.No wind96%30.45 "Hg1 mi
12:10 am36 °FFog.No wind100%30.46 "Hg1 mi
11:36 pm
Fri, Jan 15
35 °FFog.3 mph100%30.46 "Hg1 mi
11:09 pm36 °FFog.No wind100%30.47 "Hg0 mi
10:54 pm36 °FFog.3 mph100%30.46 "Hg1 mi
10:38 pm36 °FFog.5 mph97%30.45 "Hg1 mi
10:08 pm35 °FFog.No wind96%30.45 "Hg1 mi
9:43 pm33 °FFog.No wind100%30.44 "Hg0 mi
9:30 pm34 °FFog.No wind97%30.44 "Hg0 mi
8:54 pm33 °FFog.3 mph96%30.46 "Hg0 mi
8:42 pm35 °FFog.No wind96%30.45 "Hg1 mi
8:24 pm37 °FFog.No wind100%30.45 "Hg0 mi
8:06 pm35 °FFog.3 mph100%30.44 "Hg1 mi
7:33 pm38 °FFog.No wind93%30.45 "Hg2 mi
6:54 pm40 °FClear.3 mph97%30.45 "Hg8 mi
5:54 pm46 °FClear.3 mph83%30.44 "Hg10 mi
4:54 pm46 °FClear.5 mph86%30.42 "Hg10 mi
3:54 pm53 °FSunny.5 mph66%30.43 "Hg10 mi
2:54 pm53 °FSunny.6 mph74%30.41 "Hg10 mi
1:54 pm51 °FScattered clouds.5 mph80%30.40 "Hg10 mi
12:54 pm50 °FOvercast.6 mph83%30.40 "Hg10 mi
11:54 am49 °FOvercast.5 mph84%30.40 "Hg10 mi
8:54 am47 °FMostly cloudy.3 mph97%30.41 "Hg8 mi
8:16 am47 °FPartly sunny.3 mph93%30.40 "Hg9 mi
7:54 am47 °FSunny.No wind97%30.40 "Hg10 mi
7:08 am47 °FPassing clouds.7 mph97%30.39 "Hg10 mi
6:54 am47 °FPassing clouds.8 mph97%30.38 "Hg10 mi
6:10 am47 °FMostly cloudy.9 mph97%30.36 "Hg10 mi
5:54 am47 °FFog.9 mph97%30.37 "Hg6 mi
5:11 am47 °FMostly cloudy.6 mph97%30.34 "Hg9 mi
4:54 am47 °FLow clouds.8 mph97%30.34 "Hg10 mi
Weather by CustomWeather, © 2021

See weather overview